Time;durP1;ratioP1;P1;durP2;ratioP2;P2;SDS_P1;SDS_P2;PMS_P1;PMS_P2;Temp;Humidity;BMP_temperature;BMP_pressure;BME280_temperature;BME280_humidity;BME280_pressure;Samples;Min_cycle;Max_cycle;Signal;HPM_P1;HPM_P2
2022/02/21 00:02:19;;;;;;;0.10;0.10;;;;;;;;;;4905214;29;20368;-91
2022/02/21 00:04:45;;;;;;;0.10;0.10;;;;;;;;;;4921149;29;20059;-91
2022/02/21 00:07:11;;;;;;;0.00;0.00;;;;;;;;;;4905345;29;20043;-92
2022/02/21 00:09:37;;;;;;;0.00;0.00;;;;;;;;;;4904806;29;20070;-91
2022/02/21 00:12:04;;;;;;;0.03;0.03;;;;;;;;;;4904856;29;20142;-92
2022/02/21 00:14:30;;;;;;;0.10;0.10;;;;;;;;;;4904957;29;20044;-91
2022/02/21 00:16:56;;;;;;;0.10;0.10;;;;;;;;;;4905313;29;20135;-92
2022/02/21 00:19:23;;;;;;;1.20;0.63;;;;;;;;;;4920138;29;20056;-92
2022/02/21 00:21:50;;;;;;;0.00;0.00;;;;;;;;;;4904591;29;20045;-92
2022/02/21 00:24:15;;;;;;;0.00;0.00;;;;;;;;;;4920388;29;20491;-91
2022/02/21 00:26:41;;;;;;;0.10;0.10;;;;;;;;;;4904929;29;20054;-91
2022/02/21 00:29:08;;;;;;;0.30;0.30;;;;;;;;;;4904526;29;20131;-91
2022/02/21 00:31:35;;;;;;;0.10;0.10;;;;;;;;;;4920216;29;20047;-91
2022/02/21 00:34:01;;;;;;;0.77;0.38;;;;;;;;;;4920317;29;20051;-92
2022/02/21 00:36:27;;;;;;;0.10;0.10;;;;;;;;;;4904459;29;20192;-92
2022/02/21 00:38:53;;;;;;;0.00;0.00;;;;;;;;;;4904373;29;20043;-90
2022/02/21 00:41:19;;;;;;;0.10;0.10;;;;;;;;;;4904310;29;20052;-89
2022/02/21 00:43:45;;;;;;;0.30;0.30;;;;;;;;;;4904294;29;20103;-91
2022/02/21 00:46:11;;;;;;;0.10;0.10;;;;;;;;;;4904455;29;20044;-91
2022/02/21 00:48:37;;;;;;;1.85;0.22;;;;;;;;;;4904082;29;20055;-91
2022/02/21 00:51:03;;;;;;;0.00;0.00;;;;;;;;;;4904176;29;20039;-91
2022/02/21 00:53:28;;;;;;;0.10;0.10;;;;;;;;;;4908464;29;20047;-91
2022/02/21 00:55:54;;;;;;;0.10;0.10;;;;;;;;;;4919650;29;20047;-91
2022/02/21 00:58:20;;;;;;;0.00;0.00;;;;;;;;;;4919723;29;20514;-92
2022/02/21 01:00:46;;;;;;;0.00;0.00;;;;;;;;;;4919689;29;20094;-91
2022/02/21 01:03:13;;;;;;;0.22;0.22;;;;;;;;;;4934275;29;20119;-92
2022/02/21 01:05:40;;;;;;;0.10;0.10;;;;;;;;;;4919599;29;20060;-90
2022/02/21 01:08:08;;;;;;;1.88;0.45;;;;;;;;;;4919383;29;20043;-92
2022/02/21 01:10:35;;;;;;;0.25;0.25;;;;;;;;;;4919249;29;20091;-90
2022/02/21 01:13:00;;;;;;;0.10;0.10;;;;;;;;;;4919531;29;20452;-89
2022/02/21 01:15:26;;;;;;;0.00;0.00;;;;;;;;;;4934781;29;20048;-90
2022/02/21 01:17:52;;;;;;;0.00;0.00;;;;;;;;;;4919499;29;20059;-90
2022/02/21 01:20:18;;;;;;;0.10;0.10;;;;;;;;;;4918787;29;20500;-91
2022/02/21 01:22:44;;;;;;;0.00;0.00;;;;;;;;;;4935036;29;20066;-91
2022/02/21 01:25:10;;;;;;;2.35;0.30;;;;;;;;;;4918882;29;20142;-90
2022/02/21 01:27:36;;;;;;;0.00;0.00;;;;;;;;;;4918780;29;20058;-90
2022/02/21 01:30:03;;;;;;;0.00;0.00;;;;;;;;;;4918628;29;20047;-91
2022/02/21 01:32:29;;;;;;;0.10;0.10;;;;;;;;;;4918784;29;20036;-90
2022/02/21 01:34:55;;;;;;;0.00;0.00;;;;;;;;;;4918914;29;20076;-91
2022/02/21 01:37:21;;;;;;;0.10;0.10;;;;;;;;;;4934638;29;20039;-91
2022/02/21 01:39:47;;;;;;;0.10;0.10;;;;;;;;;;4918923;29;20087;-92
2022/02/21 01:42:13;;;;;;;0.10;0.10;;;;;;;;;;4918717;29;20043;-91
2022/02/21 01:44:43;;;;;;;0.00;0.00;;;;;;;;;;4918600;29;20055;-91
2022/02/21 01:47:09;;;;;;;0.10;0.10;;;;;;;;;;4934563;29;20047;-91
2022/02/21 01:49:36;;;;;;;1.30;1.30;;;;;;;;;;4918426;29;20094;-91
2022/02/21 01:52:03;;;;;;;0.00;0.00;;;;;;;;;;4918791;29;20040;-91
2022/02/21 01:54:29;;;;;;;0.10;0.10;;;;;;;;;;4918420;29;20062;-91
2022/02/21 01:56:55;;;;;;;0.08;0.08;;;;;;;;;;4919191;29;20043;-93
2022/02/21 01:59:21;;;;;;;0.00;0.00;;;;;;;;;;4919176;29;20043;-93
2022/02/21 02:01:48;;;;;;;0.00;0.00;;;;;;;;;;4918916;29;20098;-93
2022/02/21 02:04:14;;;;;;;0.05;0.05;;;;;;;;;;4918514;29;20054;-93
2022/02/21 02:06:40;;;;;;;0.00;0.00;;;;;;;;;;4918922;29;20384;-92
2022/02/21 02:09:06;;;;;;;0.20;0.20;;;;;;;;;;4918971;29;20040;-93
2022/02/21 02:11:34;;;;;;;0.10;0.10;;;;;;;;;;4918729;29;20036;-93
2022/02/21 02:14:00;;;;;;;0.15;0.15;;;;;;;;;;4918219;29;20476;-92
2022/02/21 02:16:26;;;;;;;0.10;0.10;;;;;;;;;;4918897;29;20051;-92
2022/02/21 02:18:52;;;;;;;1.05;1.05;;;;;;;;;;4918368;29;20448;-91
2022/02/21 02:21:28;;;;;;;2.63;0.63;;;;;;;;;;4918370;29;20082;-93
2022/02/21 02:23:55;;;;;;;0.10;0.10;;;;;;;;;;4934545;29;20046;-92
2022/02/21 02:26:21;;;;;;;0.10;0.10;;;;;;;;;;4917985;29;20051;-92
2022/02/21 02:28:50;;;;;;;0.10;0.10;;;;;;;;;;4918407;29;20123;-91
2022/02/21 02:31:16;;;;;;;0.10;0.10;;;;;;;;;;4918082;29;20140;-91
2022/02/21 02:33:42;;;;;;;0.10;0.10;;;;;;;;;;4934314;29;20138;-91
2022/02/21 02:36:08;;;;;;;0.00;0.00;;;;;;;;;;4918314;29;20078;-92
2022/02/21 02:38:38;;;;;;;0.32;0.32;;;;;;;;;;4918252;29;20130;-93
2022/02/21 02:41:06;;;;;;;0.05;0.05;;;;;;;;;;4918452;29;20039;-92
2022/02/21 02:43:32;;;;;;;0.10;0.10;;;;;;;;;;4918309;29;20050;-92
2022/02/21 02:45:58;;;;;;;0.00;0.00;;;;;;;;;;4918393;29;20039;-91
2022/02/21 02:48:24;;;;;;;0.08;0.08;;;;;;;;;;4918463;29;20491;-93
2022/02/21 02:50:51;;;;;;;7.13;0.65;;;;;;;;;;4918474;29;20036;-93
2022/02/21 02:53:17;;;;;;;0.10;0.10;;;;;;;;;;4918088;29;20098;-92
2022/02/21 02:55:43;;;;;;;0.10;0.10;;;;;;;;;;4918085;29;20212;-91
2022/02/21 02:58:10;;;;;;;0.10;0.10;;;;;;;;;;4918314;29;20048;-92
2022/02/21 03:00:35;;;;;;;0.00;0.00;;;;;;;;;;4918070;29;20135;-92
2022/02/21 03:03:01;;;;;;;1.08;0.30;;;;;;;;;;4917948;29;20099;-92
2022/02/21 03:05:27;;;;;;;0.10;0.10;;;;;;;;;;4918620;29;20054;-93
2022/02/21 03:07:53;;;;;;;0.10;0.10;;;;;;;;;;4918392;29;20480;-92
2022/02/21 03:10:19;;;;;;;0.10;0.10;;;;;;;;;;4917874;29;20048;-92
2022/02/21 03:12:45;;;;;;;0.10;0.10;;;;;;;;;;4917961;29;20079;-93
2022/02/21 03:15:11;;;;;;;2.55;2.40;;;;;;;;;;4917749;29;20035;-93
2022/02/21 03:17:37;;;;;;;0.00;0.00;;;;;;;;;;4917872;29;20039;-92
2022/02/21 03:20:05;;;;;;;0.10;0.10;;;;;;;;;;4917979;29;20039;-92
2022/02/21 03:22:31;;;;;;;0.10;0.10;;;;;;;;;;4917858;29;20040;-91
2022/02/21 03:24:58;;;;;;;0.10;0.10;;;;;;;;;;4918133;29;20046;-92
2022/02/21 03:27:24;;;;;;;0.00;0.00;;;;;;;;;;4919776;29;20044;-92
2022/02/21 03:29:50;;;;;;;0.10;0.10;;;;;;;;;;4921314;29;20452;-91
2022/02/21 03:32:16;;;;;;;0.08;0.08;;;;;;;;;;4921566;29;20106;-92
2022/02/21 03:34:42;;;;;;;0.10;0.10;;;;;;;;;;4921355;29;20135;-92
2022/02/21 03:37:08;;;;;;;0.10;0.10;;;;;;;;;;4937006;29;20126;-91
2022/02/21 03:39:34;;;;;;;0.00;0.00;;;;;;;;;;4921559;29;20040;-92
2022/02/21 03:42:00;;;;;;;0.08;0.08;;;;;;;;;;4921081;29;20043;-93
2022/02/21 03:44:26;;;;;;;0.00;0.00;;;;;;;;;;4921375;29;20043;-93
2022/02/21 03:46:52;;;;;;;0.00;0.00;;;;;;;;;;4921428;29;20503;-92
2022/02/21 03:49:18;;;;;;;0.10;0.10;;;;;;;;;;4920655;29;20079;-91
2022/02/21 03:51:44;;;;;;;0.10;0.10;;;;;;;;;;4920991;29;20126;-93
2022/02/21 03:54:10;;;;;;;0.10;0.10;;;;;;;;;;4920531;29;20055;-92
2022/02/21 03:56:36;;;;;;;0.10;0.10;;;;;;;;;;4921151;29;20067;-91
2022/02/21 03:59:02;;;;;;;0.00;0.00;;;;;;;;;;4920700;29;20093;-91
2022/02/21 04:01:28;;;;;;;0.43;0.35;;;;;;;;;;4920775;29;20047;-90
2022/02/21 04:03:54;;;;;;;0.30;0.30;;;;;;;;;;4920234;29;20138;-90
2022/02/21 04:06:20;;;;;;;0.40;0.22;;;;;;;;;;4920434;29;20488;-90
2022/02/21 04:08:46;;;;;;;0.00;0.00;;;;;;;;;;4920407;29;20079;-90
2022/02/21 04:11:12;;;;;;;0.10;0.10;;;;;;;;;;4920372;29;20040;-90
2022/02/21 04:13:41;;;;;;;0.63;0.63;;;;;;;;;;4920604;29;20070;-93
2022/02/21 04:16:07;;;;;;;0.10;0.10;;;;;;;;;;4920876;29;20047;-92
2022/02/21 04:18:33;;;;;;;0.43;0.43;;;;;;;;;;4936585;29;20035;-92
2022/02/21 04:20:59;;;;;;;0.00;0.00;;;;;;;;;;4920501;29;20154;-91
2022/02/21 04:23:25;;;;;;;0.00;0.00;;;;;;;;;;4920460;29;20039;-92
2022/02/21 04:25:51;;;;;;;0.43;0.20;;;;;;;;;;4936212;29;20051;-92
2022/02/21 04:28:17;;;;;;;0.00;0.00;;;;;;;;;;4920446;29;20075;-92
2022/02/21 04:30:45;;;;;;;0.75;0.65;;;;;;;;;;4920349;29;20107;-92
2022/02/21 04:33:11;;;;;;;0.73;0.32;;;;;;;;;;4920382;29;20075;-91
2022/02/21 04:35:37;;;;;;;1.08;0.30;;;;;;;;;;4919962;29;20462;-91
2022/02/21 04:38:03;;;;;;;0.10;0.10;;;;;;;;;;4919915;29;20032;-91
2022/02/21 04:40:29;;;;;;;0.10;0.10;;;;;;;;;;4935973;29;20448;-91
2022/02/21 04:42:55;;;;;;;1.30;1.30;;;;;;;;;;4936061;29;20039;-91
2022/02/21 04:45:22;;;;;;;0.00;0.00;;;;;;;;;;4920078;29;20071;-91
2022/02/21 04:47:48;;;;;;;0.10;0.10;;;;;;;;;;4919679;29;20077;-91
2022/02/21 04:50:14;;;;;;;0.10;0.10;;;;;;;;;;4919684;29;20039;-91
2022/02/21 04:52:43;;;;;;;0.20;0.20;;;;;;;;;;4919761;29;20074;-91
2022/02/21 04:55:09;;;;;;;1.88;0.10;;;;;;;;;;4919361;29;20060;-92
2022/02/21 04:57:36;;;;;;;0.05;0.05;;;;;;;;;;4919763;29;20040;-93
2022/02/21 05:00:04;;;;;;;0.10;0.10;;;;;;;;;;4920143;29;20046;-93
2022/02/21 05:02:30;;;;;;;0.10;0.10;;;;;;;;;;4919608;29;20055;-91
2022/02/21 05:04:56;;;;;;;0.10;0.10;;;;;;;;;;4919893;29;20044;-92
2022/02/21 05:07:22;;;;;;;0.15;0.13;;;;;;;;;;4919760;29;20082;-93
2022/02/21 05:09:48;;;;;;;0.20;0.20;;;;;;;;;;4919391;29;20044;-94
2022/02/21 05:12:14;;;;;;;0.00;0.00;;;;;;;;;;4919526;29;20040;-92
2022/02/21 05:14:40;;;;;;;0.10;0.10;;;;;;;;;;4935008;29;20040;-92
2022/02/21 05:17:06;;;;;;;0.10;0.10;;;;;;;;;;4919591;29;20043;-92
2022/02/21 05:19:32;;;;;;;0.00;0.00;;;;;;;;;;4919445;29;20062;-91
2022/02/21 05:21:58;;;;;;;0.10;0.10;;;;;;;;;;4918976;29;20059;-91
2022/02/21 05:24:25;;;;;;;0.30;0.30;;;;;;;;;;4934594;29;20135;-90
2022/02/21 05:26:51;;;;;;;0.00;0.00;;;;;;;;;;4934814;29;20126;-90
2022/02/21 05:29:17;;;;;;;0.10;0.10;;;;;;;;;;4918721;29;20131;-90
2022/02/21 05:31:43;;;;;;;0.00;0.00;;;;;;;;;;4934639;29;20048;-91
2022/02/21 05:34:09;;;;;;;0.10;0.10;;;;;;;;;;4934583;29;20043;-89
2022/02/21 05:36:35;;;;;;;0.00;0.00;;;;;;;;;;4918820;29;20036;-90
2022/02/21 05:39:01;;;;;;;0.00;0.00;;;;;;;;;;4918653;29;20087;-90
2022/02/21 05:41:27;;;;;;;0.00;0.00;;;;;;;;;;4919019;29;20138;-91
2022/02/21 05:43:53;;;;;;;0.00;0.00;;;;;;;;;;4918623;29;20075;-90
2022/02/21 05:46:19;;;;;;;0.10;0.10;;;;;;;;;;4934710;29;20408;-92
2022/02/21 05:48:45;;;;;;;0.00;0.00;;;;;;;;;;4918684;29;20115;-91
2022/02/21 05:51:11;;;;;;;0.10;0.10;;;;;;;;;;4934115;29;20082;-91
2022/02/21 05:53:41;;;;;;;0.00;0.00;;;;;;;;;;4918781;29;20098;-90
2022/02/21 05:56:08;;;;;;;0.00;0.00;;;;;;;;;;4934976;29;20418;-91
2022/02/21 05:58:34;;;;;;;0.00;0.00;;;;;;;;;;4918642;29;20059;-91
2022/02/21 06:01:00;;;;;;;0.00;0.00;;;;;;;;;;4918785;29;20040;-91
2022/02/21 06:03:25;;;;;;;0.10;0.10;;;;;;;;;;4918230;29;20039;-91
2022/02/21 06:05:51;;;;;;;0.10;0.10;;;;;;;;;;4934268;29;20094;-91
2022/02/21 06:08:18;;;;;;;0.00;0.00;;;;;;;;;;4918605;29;20138;-91
2022/02/21 06:10:44;;;;;;;0.00;0.00;;;;;;;;;;4918702;29;20130;-91
2022/02/21 06:13:10;;;;;;;0.00;0.00;;;;;;;;;;4934489;29;20504;-91
2022/02/21 06:15:36;;;;;;;0.40;0.10;;;;;;;;;;4918462;29;20179;-92
2022/02/21 06:18:02;;;;;;;0.00;0.00;;;;;;;;;;4918628;29;20118;-91
2022/02/21 06:20:28;;;;;;;0.00;0.00;;;;;;;;;;4917915;29;20048;-90
2022/02/21 06:22:55;;;;;;;0.00;0.00;;;;;;;;;;4933860;29;20052;-90
2022/02/21 06:25:21;;;;;;;0.00;0.00;;;;;;;;;;4917948;29;20040;-90
2022/02/21 06:27:47;;;;;;;2.65;0.28;;;;;;;;;;4918021;29;20111;-90
2022/02/21 06:30:13;;;;;;;0.10;0.10;;;;;;;;;;4917800;29;20040;-89
2022/02/21 06:32:39;;;;;;;0.20;0.20;;;;;;;;;;4917875;29;20389;-90
2022/02/21 06:35:07;;;;;;;0.00;0.00;;;;;;;;;;4933747;29;20051;-91
2022/02/21 06:37:33;;;;;;;0.00;0.00;;;;;;;;;;4933990;29;20122;-91
2022/02/21 06:39:59;;;;;;;0.10;0.10;;;;;;;;;;4918091;29;20520;-90
2022/02/21 06:42:25;;;;;;;0.10;0.10;;;;;;;;;;4917828;29;20107;-90
2022/02/21 06:44:52;;;;;;;0.10;0.10;;;;;;;;;;4933549;29;20047;-90
2022/02/21 06:47:18;;;;;;;0.00;0.00;;;;;;;;;;4917654;29;20055;-89
2022/02/21 06:49:44;;;;;;;0.10;0.10;;;;;;;;;;4917552;29;20043;-90
2022/02/21 06:52:13;;;;;;;0.20;0.20;;;;;;;;;;4918669;29;20039;-96
2022/02/21 06:54:39;;;;;;;0.00;0.00;;;;;;;;;;4935390;29;20389;-92
2022/02/21 06:57:05;;;;;;;0.00;0.00;;;;;;;;;;4918416;29;20074;-91
2022/02/21 06:59:31;;;;;;;0.75;0.52;;;;;;;;;;4918210;29;20044;-92
2022/02/21 07:01:58;;;;;;;0.00;0.00;;;;;;;;;;4920971;29;20054;-92
2022/02/21 07:04:24;;;;;;;0.00;0.00;;;;;;;;;;4922067;29;20066;-92
2022/02/21 07:06:50;;;;;;;0.10;0.10;;;;;;;;;;4922070;29;20043;-92
2022/02/21 07:09:16;;;;;;;0.10;0.10;;;;;;;;;;4921844;29;20115;-92
2022/02/21 07:11:42;;;;;;;0.08;0.08;;;;;;;;;;4922457;29;20096;-92
2022/02/21 07:14:09;;;;;;;0.10;0.10;;;;;;;;;;4921999;29;20039;-91
2022/02/21 07:16:35;;;;;;;0.00;0.00;;;;;;;;;;4937991;29;20365;-91
2022/02/21 07:19:01;;;;;;;0.00;0.00;;;;;;;;;;4921734;29;20040;-92
2022/02/21 07:21:27;;;;;;;0.00;0.00;;;;;;;;;;4937421;29;20183;-92
2022/02/21 07:23:53;;;;;;;0.00;0.00;;;;;;;;;;4921840;29;20043;-93
2022/02/21 07:26:20;;;;;;;0.05;0.05;;;;;;;;;;4921609;29;20549;-93
2022/02/21 07:28:46;;;;;;;0.00;0.00;;;;;;;;;;4921773;29;20043;-92
2022/02/21 07:31:12;;;;;;;0.10;0.10;;;;;;;;;;4922507;29;20050;-93
2022/02/21 07:33:38;;;;;;;0.10;0.10;;;;;;;;;;4921607;29;20044;-92
2022/02/21 07:36:05;;;;;;;0.32;0.20;;;;;;;;;;4921889;29;20055;-92
2022/02/21 07:38:31;;;;;;;0.08;0.08;;;;;;;;;;4921772;29;20036;-94
2022/02/21 07:40:57;;;;;;;0.10;0.10;;;;;;;;;;4921498;29;20050;-93
2022/02/21 07:43:23;;;;;;;0.10;0.10;;;;;;;;;;4921343;29;20048;-94
2022/02/21 07:45:50;;;;;;;0.10;0.10;;;;;;;;;;4922256;29;20455;-95
2022/02/21 07:48:16;;;;;;;0.00;0.00;;;;;;;;;;4921370;29;20047;-92
2022/02/21 07:50:42;;;;;;;1.55;0.57;;;;;;;;;;4921265;29;20087;-92
2022/02/21 07:53:08;;;;;;;0.10;0.10;;;;;;;;;;4920987;29;20091;-92
2022/02/21 07:55:34;;;;;;;0.00;0.00;;;;;;;;;;4905584;29;20099;-94
2022/02/21 07:58:00;;;;;;;0.10;0.10;;;;;;;;;;4905766;29;20046;-92
2022/02/21 08:00:26;;;;;;;0.10;0.10;;;;;;;;;;4905260;29;20134;-89
2022/02/21 08:02:52;;;;;;;0.00;0.00;;;;;;;;;;4904981;29;20048;-93
2022/02/21 08:05:18;;;;;;;0.10;0.10;;;;;;;;;;4906524;29;20043;-93
2022/02/21 08:07:44;;;;;;;0.03;0.03;;;;;;;;;;4905527;29;20491;-92
2022/02/21 08:10:10;;;;;;;0.10;0.10;;;;;;;;;;4905198;29;20047;-92
2022/02/21 08:12:36;;;;;;;0.00;0.00;;;;;;;;;;4905670;29;20036;-91
2022/02/21 08:15:03;;;;;;;0.10;0.10;;;;;;;;;;4905149;29;20407;-90
2022/02/21 08:17:29;;;;;;;0.10;0.10;;;;;;;;;;4904781;29;20039;-88
2022/02/21 08:19:55;;;;;;;0.20;0.20;;;;;;;;;;4920261;29;20050;-88
2022/02/21 08:22:21;;;;;;;0.10;0.10;;;;;;;;;;4904547;29;20043;-88
2022/02/21 08:24:47;;;;;;;0.00;0.00;;;;;;;;;;4920140;29;20052;-88
2022/02/21 08:27:13;;;;;;;0.28;0.28;;;;;;;;;;4920282;29;20403;-90
2022/02/21 08:29:39;;;;;;;0.00;0.00;;;;;;;;;;4904327;29;20043;-91
2022/02/21 08:37:09;;;;;;;0.10;0.10;;;;;;;;;;4954716;29;20138;-89
2022/02/21 08:39:35;;;;;;;0.05;0.05;;;;;;;;;;4907184;29;20047;-88
2022/02/21 08:42:01;;;;;;;0.43;0.43;;;;;;;;;;4906994;29;20428;-89
2022/02/21 08:44:27;;;;;;;0.00;0.00;;;;;;;;;;4922658;29;20055;-89
2022/02/21 08:46:53;;;;;;;0.10;0.10;;;;;;;;;;4923229;29;20377;-89
2022/02/21 08:49:20;;;;;;;0.08;0.08;;;;;;;;;;4923212;29;20054;-89
2022/02/21 08:51:46;;;;;;;0.10;0.10;;;;;;;;;;4919119;28;20130;-89
2022/02/21 08:54:12;;;;;;;0.10;0.10;;;;;;;;;;4925822;28;20129;-87
2022/02/21 08:56:38;;;;;;;0.05;0.05;;;;;;;;;;4925778;28;20043;-89
2022/02/21 08:59:06;;;;;;;0.10;0.10;;;;;;;;;;4941622;28;20293;-92
2022/02/21 09:01:32;;;;;;;0.22;0.22;;;;;;;;;;4926098;28;20500;-88
2022/02/21 09:03:57;;;;;;;0.10;0.10;;;;;;;;;;4925265;28;20038;-88
2022/02/21 09:06:23;;;;;;;3.30;0.82;;;;;;;;;;4925390;28;20047;-88
2022/02/21 09:08:49;;;;;;;0.08;0.08;;;;;;;;;;4925198;28;20126;-87
2022/02/21 09:11:15;;;;;;;0.10;0.10;;;;;;;;;;4925347;28;20047;-88
2022/02/21 09:13:42;;;;;;;0.05;0.05;;;;;;;;;;4926458;28;20039;-90
2022/02/21 09:16:08;;;;;;;0.10;0.10;;;;;;;;;;4945143;29;20122;-90
2022/02/21 09:18:34;;;;;;;0.10;0.10;;;;;;;;;;4921665;29;20431;-87
2022/02/21 09:21:00;;;;;;;0.10;0.10;;;;;;;;;;4906006;29;20047;-87
2022/02/21 09:23:26;;;;;;;0.00;0.00;;;;;;;;;;4921451;28;20399;-87
2022/02/21 09:25:52;;;;;;;0.10;0.10;;;;;;;;;;4921017;29;20043;-89
2022/02/21 09:28:17;;;;;;;0.00;0.00;;;;;;;;;;4921608;29;20095;-88
2022/02/21 09:30:43;;;;;;;0.00;0.00;;;;;;;;;;4922219;29;20047;-88
2022/02/21 09:33:09;;;;;;;0.10;0.10;;;;;;;;;;4906496;29;20046;-93
2022/02/21 09:35:35;;;;;;;0.00;0.00;;;;;;;;;;4918635;29;20060;-90
2022/02/21 09:38:02;;;;;;;0.10;0.10;;;;;;;;;;4903398;29;20440;-89
2022/02/21 09:40:28;;;;;;;0.57;0.30;;;;;;;;;;4918972;29;20407;-90
2022/02/21 09:42:59;;;;;;;0.10;0.10;;;;;;;;;;4902917;29;20047;-90
2022/02/21 09:45:35;;;;;;;0.10;0.10;;;;;;;;;;5130310;27;20391;-88
2022/02/21 09:48:02;;;;;;;0.00;0.00;;;;;;;;;;5095306;28;20350;-89
2022/02/21 09:50:28;;;;;;;0.00;0.00;;;;;;;;;;5095075;28;20522;-90
2022/02/21 09:53:00;;;;;;;0.10;0.10;;;;;;;;;;5083823;27;20562;-91
2022/02/21 09:55:26;;;;;;;0.00;0.00;;;;;;;;;;5096093;28;20039;-92
2022/02/21 09:57:52;;;;;;;0.00;0.00;;;;;;;;;;5095631;28;20092;-93
2022/02/21 10:00:18;;;;;;;0.10;0.10;;;;;;;;;;5111855;28;20487;-90
2022/02/21 10:02:46;;;;;;;0.10;0.10;;;;;;;;;;5112569;28;20043;-90
2022/02/21 10:05:16;;;;;;;0.10;0.10;;;;;;;;;;5095158;28;20043;-90
2022/02/21 10:07:43;;;;;;;0.00;0.00;;;;;;;;;;5094688;28;20035;-90
2022/02/21 10:10:09;;;;;;;0.10;0.10;;;;;;;;;;5094940;28;20208;-90
2022/02/21 10:12:47;;;;;;;0.10;0.10;;;;;;;;;;5094687;28;20100;-90
2022/02/21 10:15:14;;;;;;;0.10;0.10;;;;;;;;;;5111627;28;20486;-90
2022/02/21 10:17:40;;;;;;;0.10;0.10;;;;;;;;;;5094877;28;20043;-90
2022/02/21 10:20:06;;;;;;;0.08;0.08;;;;;;;;;;5094472;28;20040;-90
2022/02/21 10:22:32;;;;;;;0.03;0.03;;;;;;;;;;5094427;28;20042;-90
2022/02/21 10:24:58;;;;;;;0.00;0.00;;;;;;;;;;5094711;28;20039;-91
2022/02/21 10:27:29;;;;;;;0.10;0.10;;;;;;;;;;5094597;28;20048;-92
2022/02/21 10:30:05;;;;;;;0.00;0.00;;;;;;;;;;5111611;28;20065;-93
2022/02/21 10:32:35;;;;;;;0.00;0.00;;;;;;;;;;5111959;28;20036;-92
2022/02/21 10:35:23;;;;;;;0.10;0.10;;;;;;;;;;5094758;28;20502;-93
2022/02/21 10:37:59;;;;;;;0.10;0.10;;;;;;;;;;5095904;28;20051;-95
2022/02/21 10:40:26;;;;;;;0.08;0.08;;;;;;;;;;5094927;28;20542;-92
2022/02/21 10:43:11;;;;;;;0.00;0.00;;;;;;;;;;5095475;28;20039;-92
2022/02/21 10:45:38;;;;;;;0.00;0.00;;;;;;;;;;5112759;28;20050;-93
2022/02/21 10:48:23;;;;;;;0.00;0.00;;;;;;;;;;5094944;28;20039;-93
2022/02/21 10:50:53;;;;;;;0.00;0.00;;;;;;;;;;5095366;28;20115;-94
2022/02/21 10:53:23;;;;;;;0.10;0.10;;;;;;;;;;5095107;27;20096;-92
2022/02/21 10:55:53;;;;;;;0.10;0.10;;;;;;;;;;5087489;28;20036;-92
2022/02/21 10:58:25;;;;;;;0.00;0.00;;;;;;;;;;5081064;28;20054;-92
2022/02/21 11:00:52;;;;;;;0.00;0.00;;;;;;;;;;5097833;28;20131;-90
2022/02/21 11:03:18;;;;;;;0.10;0.10;;;;;;;;;;5097516;28;20071;-92
2022/02/21 11:05:45;;;;;;;0.00;0.00;;;;;;;;;;5080373;28;20126;-90
2022/02/21 11:08:11;;;;;;;0.00;0.00;;;;;;;;;;5080582;28;20554;-90
2022/02/21 11:10:37;;;;;;;0.00;0.00;;;;;;;;;;5080287;28;20078;-90
2022/02/21 11:13:04;;;;;;;0.03;0.03;;;;;;;;;;5097293;28;20444;-91
2022/02/21 11:15:30;;;;;;;0.10;0.10;;;;;;;;;;5080743;28;20096;-91
2022/02/21 11:17:56;;;;;;;0.03;0.03;;;;;;;;;;5080189;28;20031;-90
2022/02/21 11:20:22;;;;;;;0.03;0.03;;;;;;;;;;5079909;28;20084;-91
2022/02/21 11:22:48;;;;;;;0.10;0.10;;;;;;;;;;5080178;28;20513;-90
2022/02/21 11:25:14;;;;;;;0.00;0.00;;;;;;;;;;5096795;28;20126;-90
2022/02/21 11:27:46;;;;;;;0.00;0.00;;;;;;;;;;5096706;28;20051;-90
2022/02/21 11:30:15;;;;;;;0.00;0.00;;;;;;;;;;5096880;28;20073;-90
2022/02/21 11:32:53;;;;;;;0.00;0.00;;;;;;;;;;5079805;28;20247;-89
2022/02/21 11:35:20;;;;;;;0.00;0.00;;;;;;;;;;5096394;28;20051;-89
2022/02/21 11:37:46;;;;;;;0.00;0.00;;;;;;;;;;5080003;28;20484;-89
2022/02/21 11:40:13;;;;;;;0.00;0.00;;;;;;;;;;5079388;28;20036;-90
2022/02/21 11:42:39;;;;;;;0.10;0.10;;;;;;;;;;5079429;28;20043;-90
2022/02/21 11:45:06;;;;;;;0.00;0.00;;;;;;;;;;5079116;28;20055;-89
2022/02/21 11:47:42;;;;;;;0.00;0.00;;;;;;;;;;5096113;28;20061;-89
2022/02/21 11:50:20;;;;;;;0.10;0.10;;;;;;;;;;5096134;28;20042;-89
2022/02/21 11:52:50;;;;;;;0.00;0.00;;;;;;;;;;5096435;28;20157;-90
2022/02/21 11:55:35;;;;;;;0.10;0.10;;;;;;;;;;5079631;28;20043;-89
2022/02/21 11:58:18;;;;;;;0.00;0.00;;;;;;;;;;5096508;28;20038;-91
2022/02/21 12:00:47;;;;;;;0.00;0.00;;;;;;;;;;5096575;28;20043;-92
2022/02/21 12:03:15;;;;;;;0.00;0.00;;;;;;;;;;5079776;28;20043;-92
2022/02/21 12:05:42;;;;;;;0.00;0.00;;;;;;;;;;5083551;28;20123;-93
2022/02/21 12:08:26;;;;;;;0.00;0.00;;;;;;;;;;5088543;28;20032;-90
2022/02/21 12:11:07;;;;;;;0.00;0.00;;;;;;;;;;5113138;28;20075;-89
2022/02/21 12:13:33;;;;;;;0.00;0.00;;;;;;;;;;5095621;28;20036;-90
2022/02/21 12:15:59;;;;;;;0.00;0.00;;;;;;;;;;5078955;28;20043;-90
2022/02/21 12:18:38;;;;;;;0.00;0.00;;;;;;;;;;5080011;28;20130;-93
2022/02/21 12:21:24;;;;;;;0.00;0.00;;;;;;;;;;5080696;28;20055;-94
2022/02/21 12:23:55;;;;;;;0.00;0.00;;;;;;;;;;5101623;28;20047;-90
2022/02/21 12:26:30;;;;;;;0.00;0.00;;;;;;;;;;5096000;28;20036;-92
2022/02/21 12:29:12;;;;;;;0.10;0.10;;;;;;;;;;5077883;28;20050;-88
2022/02/21 12:31:39;;;;;;;0.00;0.00;;;;;;;;;;5095583;28;20047;-92
2022/02/21 12:34:05;;;;;;;0.00;0.00;;;;;;;;;;5078724;28;20076;-92
2022/02/21 12:36:38;;;;;;;0.00;0.00;;;;;;;;;;5078780;28;20131;-93
2022/02/21 12:39:05;;;;;;;0.00;0.00;;;;;;;;;;5095863;28;20043;-93
2022/02/21 12:41:41;;;;;;;0.00;0.00;;;;;;;;;;5078955;28;20071;-92
2022/02/21 12:44:08;;;;;;;0.10;0.10;;;;;;;;;;5078164;28;20432;-93
2022/02/21 12:46:41;;;;;;;0.00;0.00;;;;;;;;;;5095617;28;20509;-93
2022/02/21 12:49:09;;;;;;;0.00;0.00;;;;;;;;;;5077983;28;20412;-92
2022/02/21 12:51:37;;;;;;;0.00;0.00;;;;;;;;;;5095263;28;20031;-93
2022/02/21 12:54:06;;;;;;;0.00;0.00;;;;;;;;;;5078601;28;20039;-92
2022/02/21 12:56:47;;;;;;;0.00;0.00;;;;;;;;;;5095128;28;20043;-93
2022/02/21 12:59:14;;;;;;;0.00;0.00;;;;;;;;;;5094563;28;20035;-92
2022/02/21 13:01:41;;;;;;;0.00;0.00;;;;;;;;;;5078337;28;20044;-92
2022/02/21 13:04:08;;;;;;;0.63;0.20;;;;;;;;;;5078358;28;20376;-94
2022/02/21 13:06:34;;;;;;;0.00;0.00;;;;;;;;;;5078231;28;20198;-92
2022/02/21 13:09:00;;;;;;;0.00;0.00;;;;;;;;;;5078655;28;20167;-93
2022/02/21 13:11:30;;;;;;;0.10;0.10;;;;;;;;;;5077248;28;20090;-88
2022/02/21 13:13:56;;;;;;;0.10;0.10;;;;;;;;;;5094031;28;20043;-87
2022/02/21 13:16:22;;;;;;;0.03;0.03;;;;;;;;;;5094312;28;20036;-89
2022/02/21 13:18:49;;;;;;;0.70;0.20;;;;;;;;;;5077301;28;20046;-93
2022/02/21 13:21:34;;;;;;;0.00;0.00;;;;;;;;;;5078103;28;20039;-88
2022/02/21 13:24:00;;;;;;;0.10;0.10;;;;;;;;;;5094278;28;20051;-90
2022/02/21 13:26:26;;;;;;;0.00;0.00;;;;;;;;;;5073391;28;20071;-90
2022/02/21 13:28:52;;;;;;;0.95;0.95;;;;;;;;;;5074331;28;20040;-89
2022/02/21 13:31:18;;;;;;;0.00;0.00;;;;;;;;;;5074271;28;20475;-89
2022/02/21 13:33:50;;;;;;;0.00;0.00;;;;;;;;;;5074221;28;20040;-90
2022/02/21 13:36:24;;;;;;;0.10;0.10;;;;;;;;;;5076075;28;20048;-92
2022/02/21 13:38:54;;;;;;;0.43;0.43;;;;;;;;;;5074077;28;20044;-90
2022/02/21 13:41:20;;;;;;;0.98;0.98;;;;;;;;;;5057753;28;20352;-89
2022/02/21 13:43:46;;;;;;;0.32;0.32;;;;;;;;;;5073615;28;20056;-91
2022/02/21 13:46:12;;;;;;;0.10;0.10;;;;;;;;;;5074287;28;20047;-90
2022/02/21 13:48:48;;;;;;;0.20;0.20;;;;;;;;;;5057261;28;20399;-91
2022/02/21 13:51:20;;;;;;;0.10;0.10;;;;;;;;;;5057861;28;20032;-91
2022/02/21 13:53:46;;;;;;;0.00;0.00;;;;;;;;;;5074357;28;20051;-91
2022/02/21 13:56:16;;;;;;;0.98;0.22;;;;;;;;;;5058172;28;20071;-92
2022/02/21 13:58:44;;;;;;;0.00;0.00;;;;;;;;;;5057660;28;20044;-91
2022/02/21 14:01:13;;;;;;;0.10;0.10;;;;;;;;;;5074123;28;20471;-91
2022/02/21 14:03:40;;;;;;;0.00;0.00;;;;;;;;;;5074421;28;20090;-91
2022/02/21 14:06:06;;;;;;;0.38;0.38;;;;;;;;;;5057332;28;20048;-91
2022/02/21 14:08:39;;;;;;;1.23;1.17;;;;;;;;;;5057434;28;20056;-91
2022/02/21 14:11:05;;;;;;;0.00;0.00;;;;;;;;;;5057426;28;20046;-91
2022/02/21 14:13:31;;;;;;;0.00;0.00;;;;;;;;;;5057077;28;20119;-89
2022/02/21 14:15:58;;;;;;;0.00;0.00;;;;;;;;;;5057278;28;20371;-89
2022/02/21 14:18:24;;;;;;;0.70;0.65;;;;;;;;;;5056888;28;20510;-89
2022/02/21 14:20:50;;;;;;;0.00;0.00;;;;;;;;;;5056934;28;20068;-89
2022/02/21 14:23:16;;;;;;;0.10;0.10;;;;;;;;;;5056847;28;20051;-91
2022/02/21 14:25:42;;;;;;;0.00;0.00;;;;;;;;;;5073863;28;20036;-90
2022/02/21 14:28:08;;;;;;;0.00;0.00;;;;;;;;;;5073599;28;20089;-90
2022/02/21 14:30:34;;;;;;;0.05;0.05;;;;;;;;;;5063619;28;20096;-90
2022/02/21 14:33:01;;;;;;;0.00;0.00;;;;;;;;;;5080869;28;20035;-91
2022/02/21 14:35:28;;;;;;;0.10;0.10;;;;;;;;;;5098252;28;20051;-91
2022/02/21 14:37:54;;;;;;;0.00;0.00;;;;;;;;;;5081314;28;20409;-90
2022/02/21 14:40:20;;;;;;;0.10;0.10;;;;;;;;;;5080758;28;20097;-89
2022/02/21 14:42:46;;;;;;;0.00;0.00;;;;;;;;;;5097518;28;20078;-92
2022/02/21 14:45:12;;;;;;;0.00;0.00;;;;;;;;;;5080238;28;20506;-91
2022/02/21 14:47:38;;;;;;;0.00;0.00;;;;;;;;;;5080936;28;20113;-92
2022/02/21 14:50:04;;;;;;;0.00;0.00;;;;;;;;;;5080906;28;20035;-91